Time;durP1;ratioP1;P1;durP2;ratioP2;P2;SDS_P1;SDS_P2;PMS_P1;PMS_P2;Temp;Humidity;BMP_temperature;BMP_pressure;BME280_temperature;BME280_humidity;BME280_pressure;Samples;Min_cycle;Max_cycle;Signal;HPM_P1;HPM_P2
2022/09/03 00:02:17;;;;;;;7.20;3.30;;;;;;;13.20;53.84;100963.88;106000;1276;22539;-77
2022/09/03 00:04:45;;;;;;;5.00;3.20;;;;;;;13.16;54.05;100966.40;106099;1274;22520;-83
2022/09/03 00:07:22;;;;;;;6.30;3.30;;;;;;;13.16;54.09;100964.80;106114;1274;22985;-76
2022/09/03 00:10:01;;;;;;;6.00;3.40;;;;;;;13.11;54.07;100963.25;105971;1273;23207;-76
2022/09/03 00:12:35;;;;;;;5.60;3.10;;;;;;;13.07;54.35;100963.84;105850;1275;22543;-78
2022/09/03 00:15:08;;;;;;;6.10;2.50;;;;;;;13.04;54.28;100965.46;106183;1275;25447;-79
2022/09/03 00:17:44;;;;;;;6.50;3.10;;;;;;;13.01;54.35;100971.85;105987;1275;25268;-80
2022/09/03 00:20:11;;;;;;;;;;;;;;;12.94;54.26;100967.69;106201;1273;25460;-80
2022/09/03 00:23:00;;;;;;;5.80;2.90;;;;;;;12.90;54.24;100966.46;106055;1273;23960;-77
2022/09/03 00:25:43;;;;;;;7.20;2.90;;;;;;;12.85;54.26;100963.70;106067;1273;24286;-74
2022/09/03 00:28:17;;;;;;;7.00;2.90;;;;;;;12.82;54.40;100962.13;105900;1274;22650;-76
2022/09/03 00:30:55;;;;;;;10.10;3.20;;;;;;;12.81;54.41;100959.85;105915;1274;25609;-76
2022/09/03 00:33:29;;;;;;;6.00;3.40;;;;;;;12.80;54.41;100959.66;106218;1273;26507;-77
2022/09/03 00:36:12;;;;;;;5.30;2.90;;;;;;;12.76;54.35;100959.17;105994;1274;25245;-78
2022/09/03 00:38:39;;;;;;;6.20;2.60;;;;;;;12.75;54.35;100958.31;105952;1274;23174;-76
2022/09/03 00:41:30;;;;;;;4.40;2.20;;;;;;;12.74;54.39;100959.73;105963;1275;23937;-72
2022/09/03 00:44:36;;;;;;;4.70;3.00;;;;;;;12.70;54.35;100955.35;106300;1276;22682;-75
2022/09/03 00:47:45;;;;;;;5.90;2.90;;;;;;;12.67;54.40;100955.20;105731;1274;22529;-74
2022/09/03 00:50:40;;;;;;;5.60;2.80;;;;;;;12.66;54.47;100963.36;105890;1276;22695;-76
2022/09/03 00:53:33;;;;;;;8.80;3.20;;;;;;;12.59;54.40;100961.28;106246;1273;25331;-75
2022/09/03 00:56:14;;;;;;;4.90;2.60;;;;;;;12.55;54.44;100966.42;106385;1273;25487;-82
2022/09/03 00:59:10;;;;;;;4.80;2.80;;;;;;;12.47;54.59;100961.72;106092;1274;22557;-79
2022/09/03 01:01:45;;;;;;;5.50;2.90;;;;;;;12.52;54.58;100966.45;106402;1274;22530;-73
2022/09/03 01:04:31;;;;;;;5.00;2.50;;;;;;;12.52;54.68;100971.58;106593;1274;25258;-75
2022/09/03 01:07:20;;;;;;;5.20;2.90;;;;;;;12.45;54.68;100963.33;106181;1274;22764;-77
2022/09/03 01:10:43;;;;;;;5.80;2.80;;;;;;;12.44;54.55;100971.98;105909;1276;24257;-76
2022/09/03 01:14:01;;;;;;;5.40;2.70;;;;;;;12.27;54.58;100967.86;105699;1276;25264;-78
2022/09/03 01:16:45;;;;;;;3.40;2.40;;;;;;;12.25;54.89;100966.66;105513;1277;22689;-77
2022/09/03 01:19:17;;;;;;;3.90;2.70;;;;;;;12.26;54.87;100965.05;106133;1274;22531;-79
2022/09/03 01:22:18;;;;;;;4.90;3.40;;;;;;;12.25;54.98;100968.59;106016;1276;22550;-77
2022/09/03 01:25:10;;;;;;;12.70;3.20;;;;;;;12.22;54.87;100964.37;106057;1274;25308;-80
2022/09/03 01:27:57;;;;;;;6.30;3.00;;;;;;;12.20;54.94;100968.09;106034;1275;24198;-78
2022/09/03 01:30:25;;;;;;;4.80;2.60;;;;;;;12.18;55.11;100964.58;105933;1275;22537;-75
2022/09/03 01:32:52;;;;;;;3.90;2.60;;;;;;;12.12;55.10;100962.49;105837;1274;25560;-80
2022/09/03 01:35:38;;;;;;;6.70;2.50;;;;;;;12.11;55.13;100965.14;106057;1275;24843;-75
2022/09/03 01:38:43;;;;;;;4.10;2.10;;;;;;;12.06;55.24;100968.16;106069;1276;25992;-76
2022/09/03 01:45:01;;;;;;;3.90;2.90;;;;;;;12.05;55.41;100963.39;105848;1276;22541;-75
2022/09/03 01:48:06;;;;;;;6.10;3.00;;;;;;;12.06;55.41;100966.74;106065;1273;24354;-75
2022/09/03 01:50:44;;;;;;;4.50;2.30;;;;;;;12.04;55.60;100963.73;106079;1274;25873;-78
2022/09/03 01:53:35;;;;;;;3.70;2.70;;;;;;;12.00;55.63;100962.73;106134;1274;26497;-76
2022/09/03 01:56:17;;;;;;;4.60;2.60;;;;;;;11.98;55.58;100961.67;105968;1274;23988;-76
2022/09/03 01:59:08;;;;;;;4.40;2.60;;;;;;;11.88;55.62;100960.13;106068;1274;25366;-75
2022/09/03 02:01:49;;;;;;;5.30;3.00;;;;;;;11.87;55.77;100957.14;105722;1279;22560;-75
2022/09/03 02:04:22;;;;;;;5.10;2.90;;;;;;;11.85;55.88;100953.62;105530;1279;22535;-75
2022/09/03 02:06:50;;;;;;;7.40;3.20;;;;;;;11.85;55.94;100950.97;105609;1279;22510;-78
2022/09/03 02:09:19;;;;;;;5.70;2.80;;;;;;;11.86;55.89;100950.79;105623;1279;24241;-75
2022/09/03 02:11:54;;;;;;;6.80;2.70;;;;;;;11.82;56.00;100946.58;105404;1280;25495;-76
2022/09/03 02:14:21;;;;;;;4.10;2.50;;;;;;;11.82;55.93;100946.05;105580;1279;24246;-75
2022/09/03 02:16:49;;;;;;;7.80;3.20;;;;;;;11.79;55.99;100947.30;105691;1279;24280;-72
2022/09/03 02:19:17;;;;;;;5.50;2.50;;;;;;;11.75;56.00;100946.27;105635;1273;25258;-74
2022/09/03 02:21:56;;;;;;;3.50;2.80;;;;;;;11.69;56.13;100939.59;106001;1273;25359;-74
2022/09/03 02:24:24;;;;;;;5.40;2.90;;;;;;;11.69;56.08;100943.10;105916;1274;26507;-71
2022/09/03 02:26:52;;;;;;;5.70;2.80;;;;;;;11.68;56.25;100940.30;105752;1274;25264;-77
2022/09/03 02:29:20;;;;;;;6.80;3.20;;;;;;;11.65;56.22;100942.07;105935;1274;22530;-76
2022/09/03 02:31:47;;;;;;;4.60;2.40;;;;;;;11.63;56.16;100946.14;106029;1277;25260;-75
2022/09/03 02:34:14;;;;;;;5.10;3.00;;;;;;;11.62;56.38;100944.20;106091;1273;22561;-75
2022/09/03 02:36:47;;;;;;;6.00;3.30;;;;;;;11.57;56.39;100941.93;105986;1276;22728;-75
2022/09/03 02:39:15;;;;;;;4.70;2.90;;;;;;;11.54;56.43;100940.00;106484;1273;25606;-74
2022/09/03 02:41:43;;;;;;;3.90;2.70;;;;;;;11.51;56.38;100941.41;107119;1273;22547;-74
2022/09/03 02:44:30;;;;;;;4.30;2.80;;;;;;;11.49;56.36;100946.88;106668;1273;22553;-77
2022/09/03 02:46:59;;;;;;;3.70;2.40;;;;;;;11.44;56.44;100944.27;106018;1273;22865;-76
2022/09/03 02:49:27;;;;;;;3.80;2.50;;;;;;;11.41;56.51;100943.59;106738;1273;22862;-80
2022/09/03 02:51:59;;;;;;;7.20;3.10;;;;;;;11.38;56.59;100942.88;107692;1274;25389;-82
2022/09/03 02:54:27;;;;;;;4.70;2.80;;;;;;;11.40;56.70;100939.52;108342;1273;23004;-79
2022/09/03 02:56:55;;;;;;;4.40;2.70;;;;;;;11.38;56.55;100943.40;105436;1284;25470;-81
2022/09/03 02:59:21;;;;;;;4.30;2.60;;;;;;;11.36;56.69;100939.90;104978;1288;22563;-81
2022/09/03 03:01:48;;;;;;;4.60;2.70;;;;;;;11.37;56.78;100940.42;104876;1287;25920;-81
2022/09/03 03:04:15;;;;;;;4.80;3.20;;;;;;;11.36;56.85;100936.37;104812;1287;25390;-77
2022/09/03 03:06:42;;;;;;;4.30;2.70;;;;;;;11.35;57.00;100935.84;104606;1288;24346;-76
2022/09/03 03:09:13;;;;;;;5.30;2.90;;;;;;;11.31;56.87;100934.45;104919;1287;22743;-77
2022/09/03 03:11:40;;;;;;;4.70;3.10;;;;;;;11.31;56.89;100933.94;104872;1287;22567;-77
2022/09/03 03:14:07;;;;;;;5.90;2.90;;;;;;;11.28;56.95;100935.16;104810;1287;25611;-75
2022/09/03 03:16:34;;;;;;;4.90;3.00;;;;;;;11.27;57.13;100936.05;105521;1281;25346;-73
2022/09/03 03:19:02;;;;;;;6.80;3.00;;;;;;;11.26;57.22;100939.22;105911;1277;22536;-78
2022/09/03 03:21:29;;;;;;;5.20;2.80;;;;;;;11.24;57.32;100939.05;105900;1276;22530;-74
2022/09/03 03:23:56;;;;;;;5.20;3.20;;;;;;;11.21;57.31;100941.88;105926;1277;22839;-76
2022/09/03 03:26:23;;;;;;;7.70;2.80;;;;;;;11.22;57.39;100949.29;105953;1275;22523;-72
2022/09/03 03:28:56;;;;;;;4.10;2.90;;;;;;;11.20;57.45;100943.83;105823;1277;25267;-76
2022/09/03 03:31:23;;;;;;;2.60;2.40;;;;;;;11.19;57.46;100943.83;105898;1274;25524;-75
2022/09/03 03:33:55;;;;;;;3.10;2.50;;;;;;;11.18;57.54;100943.82;105937;1275;25242;-73
2022/09/03 03:36:24;;;;;;;5.60;3.60;;;;;;;11.15;57.63;100946.84;105954;1275;25868;-74
2022/09/03 03:38:56;;;;;;;3.10;2.40;;;;;;;11.11;57.67;100950.55;105907;1276;22608;-75
2022/09/03 03:41:26;;;;;;;6.80;2.60;;;;;;;11.09;57.74;100955.84;105907;1274;26517;-77
2022/09/03 03:43:54;;;;;;;7.50;3.00;;;;;;;11.04;57.88;100949.16;105981;1276;22547;-80
2022/09/03 03:46:23;;;;;;;6.70;2.90;;;;;;;11.07;57.92;100955.48;106062;1277;22592;-79
2022/09/03 03:48:51;;;;;;;5.10;3.00;;;;;;;11.03;58.11;100950.04;105887;1276;25272;-77
2022/09/03 03:51:19;;;;;;;6.00;2.70;;;;;;;11.06;58.04;100957.08;106005;1277;24275;-78
2022/09/03 03:53:47;;;;;;;5.60;2.80;;;;;;;11.04;58.10;100959.89;105929;1277;24248;-78
2022/09/03 03:56:15;;;;;;;8.50;3.10;;;;;;;11.02;58.17;100960.44;106071;1274;22551;-76
2022/09/03 03:58:43;;;;;;;5.10;2.60;;;;;;;10.99;58.30;100963.27;105933;1276;22711;-74
2022/09/03 04:01:13;;;;;;;5.80;2.90;;;;;;;10.97;58.36;100961.15;105883;1276;23352;-76
2022/09/03 04:03:41;;;;;;;4.20;2.70;;;;;;;10.95;58.46;100956.74;105822;1276;22559;-75
2022/09/03 04:06:10;;;;;;;4.70;2.90;;;;;;;10.95;58.50;100959.39;105950;1274;22771;-82
2022/09/03 04:08:40;;;;;;;6.20;2.80;;;;;;;10.94;58.57;100961.16;105899;1275;25304;-75
2022/09/03 04:11:10;;;;;;;5.90;3.00;;;;;;;10.89;58.61;100961.50;105979;1274;22547;-83
2022/09/03 04:13:39;;;;;;;3.80;2.70;;;;;;;10.87;58.63;100966.44;106022;1275;22531;-77
2022/09/03 04:16:09;;;;;;;5.10;2.90;;;;;;;10.86;58.75;100965.58;105198;1282;22879;-74
2022/09/03 04:18:38;;;;;;;8.10;2.50;;;;;;;10.87;58.88;100964.33;105108;1282;24249;-73
2022/09/03 04:21:09;;;;;;;6.00;3.00;;;;;;;10.85;59.06;100960.45;105336;1281;22560;-77
2022/09/03 04:23:39;;;;;;;7.10;2.90;;;;;;;10.87;58.89;100963.63;105945;1281;25967;-75
2022/09/03 04:26:07;;;;;;;3.80;2.40;;;;;;;10.86;58.74;100969.27;106912;1282;25396;-74
2022/09/03 04:28:35;;;;;;;5.50;2.80;;;;;;;10.84;58.83;100975.78;105608;1281;24285;-77
2022/09/03 04:31:05;;;;;;;6.80;2.70;;;;;;;10.84;58.92;100973.48;105354;1282;25383;-76
2022/09/03 04:33:34;;;;;;;7.80;3.00;;;;;;;10.83;58.97;100977.19;105712;1280;23987;-79
2022/09/03 04:36:09;;;;;;;5.20;2.60;;;;;;;10.84;59.06;100976.67;106117;1276;22535;-76
2022/09/03 04:38:39;;;;;;;7.60;3.00;;;;;;;10.85;59.04;100974.55;106025;1277;24254;-79
2022/09/03 04:41:08;;;;;;;3.60;2.90;;;;;;;10.84;58.98;100974.37;107528;1276;22505;-75
2022/09/03 04:43:35;;;;;;;5.30;2.70;;;;;;;10.83;59.05;100972.79;106465;1277;22597;-81
2022/09/03 04:46:05;;;;;;;4.30;2.80;;;;;;;10.83;59.00;100973.14;106018;1276;24071;-77
2022/09/03 04:48:35;;;;;;;5.50;3.00;;;;;;;10.80;58.92;100972.44;106129;1274;22598;-76
2022/09/03 04:51:15;;;;;;;5.70;2.30;;;;;;;10.81;59.07;100974.20;105927;1276;24217;-80
2022/09/03 04:53:45;;;;;;;8.50;2.90;;;;;;;10.82;59.20;100970.86;105908;1277;25647;-76
2022/09/03 04:56:14;;;;;;;3.90;2.70;;;;;;;10.87;59.22;100977.89;106019;1275;25582;-82
2022/09/03 04:58:42;;;;;;;6.40;3.00;;;;;;;10.87;59.08;100979.30;105705;1279;24338;-80
2022/09/03 05:01:12;;;;;;;5.60;2.90;;;;;;;10.87;59.18;100988.46;105882;1279;23099;-78
2022/09/03 05:03:39;;;;;;;3.30;2.40;;;;;;;10.90;59.03;100991.46;104637;1280;1455483;-73
2022/09/03 05:06:07;;;;;;;6.20;3.40;;;;;;;10.90;58.95;100997.29;105543;1279;25336;-76
2022/09/03 05:08:35;;;;;;;6.20;3.10;;;;;;;10.93;59.09;100991.30;105663;1280;22557;-75
2022/09/03 05:11:04;;;;;;;4.80;3.20;;;;;;;10.98;59.19;100988.98;105714;1279;25433;-74
2022/09/03 05:13:32;;;;;;;4.30;2.90;;;;;;;11.03;59.07;100994.27;105778;1279;25302;-73
2022/09/03 05:16:05;;;;;;;7.90;3.30;;;;;;;11.07;58.93;100995.85;105696;1280;22556;-73
2022/09/03 05:18:37;;;;;;;6.00;3.00;;;;;;;11.11;58.93;100997.27;107251;1275;22563;-78
2022/09/03 05:21:10;;;;;;;4.90;3.00;;;;;;;11.17;58.94;100992.84;106922;1276;24294;-78
2022/09/03 05:23:39;;;;;;;6.20;3.20;;;;;;;11.14;58.73;100992.84;106058;1276;25327;-81
2022/09/03 05:26:09;;;;;;;5.20;3.00;;;;;;;11.14;58.62;100999.90;106266;1275;24296;-80
2022/09/03 05:28:39;;;;;;;4.50;2.50;;;;;;;11.12;58.58;100999.19;106117;1276;25491;-82
2022/09/03 05:31:10;;;;;;;8.00;3.30;;;;;;;11.10;58.67;100999.55;106179;1276;22574;-81
2022/09/03 05:33:42;;;;;;;6.60;3.10;;;;;;;11.10;58.67;101001.48;106376;1276;22474;-76
2022/09/03 05:36:13;;;;;;;5.20;3.40;;;;;;;11.10;58.70;100999.20;106292;1274;24295;-78
2022/09/03 05:38:40;;;;;;;8.20;3.40;;;;;;;11.14;58.74;101001.48;106302;1277;24348;-80
2022/09/03 05:41:10;;;;;;;5.80;2.70;;;;;;;11.20;58.70;101000.77;106217;1276;24172;-79
2022/09/03 05:43:38;;;;;;;6.20;2.90;;;;;;;11.23;58.60;100997.58;106452;1273;22547;-79
2022/09/03 05:46:11;;;;;;;7.10;2.70;;;;;;;11.26;58.70;100989.29;106058;1277;24235;-80
2022/09/03 05:48:39;;;;;;;9.60;2.80;;;;;;;11.37;58.63;100995.09;106226;1274;23928;-86
2022/09/03 05:51:15;;;;;;;4.50;2.80;;;;;;;11.45;58.64;100996.30;106783;1274;23408;-82
2022/09/03 05:53:44;;;;;;;6.90;3.00;;;;;;;11.48;58.57;100983.41;106719;1274;24358;-85
2022/09/03 05:56:16;;;;;;;7.10;3.10;;;;;;;11.55;58.39;100985.50;106606;1275;24794;-75
2022/09/03 05:58:50;;;;;;;3.20;2.60;;;;;;;11.65;58.35;100986.18;106125;1276;22460;-80
2022/09/03 06:01:27;;;;;;;8.00;3.10;;;;;;;11.70;58.22;100987.39;106140;1277;23918;-78
2022/09/03 06:03:56;;;;;;;6.30;2.80;;;;;;;11.74;58.23;100988.09;106133;1273;25239;-80
2022/09/03 06:06:24;;;;;;;7.70;3.10;;;;;;;11.82;58.33;100986.81;106213;1273;24252;-78
2022/09/03 06:08:56;;;;;;;7.00;2.90;;;;;;;11.89;58.00;100987.65;106113;1275;25257;-76
2022/09/03 06:11:27;;;;;;;6.40;3.30;;;;;;;11.95;57.95;100990.09;106155;1274;22622;-77
2022/09/03 06:14:03;;;;;;;6.30;2.70;;;;;;;11.94;57.87;100983.40;106137;1273;25249;-81
2022/09/03 06:16:32;;;;;;;4.90;2.50;;;;;;;12.03;57.75;100991.29;106128;1273;22543;-79
2022/09/03 06:18:59;;;;;;;7.40;2.70;;;;;;;12.09;57.71;100994.27;106061;1276;22548;-78
2022/09/03 06:21:27;;;;;;;8.90;3.10;;;;;;;12.16;57.47;100990.70;106365;1273;25440;-82
2022/09/03 06:23:57;;;;;;;6.10;2.80;;;;;;;12.19;57.34;100983.27;106132;1274;24410;-79
2022/09/03 06:26:29;;;;;;;6.60;2.70;;;;;;;12.27;57.28;100983.94;106086;1277;25483;-78
2022/09/03 06:28:57;;;;;;;8.10;3.40;;;;;;;12.32;57.29;100984.79;106057;1276;22538;-79
2022/09/03 06:31:24;;;;;;;11.50;3.20;;;;;;;12.35;57.20;100986.70;106266;1275;22718;-82
2022/09/03 06:33:53;;;;;;;6.10;3.70;;;;;;;12.40;57.18;100982.09;106240;1273;24232;-78
2022/09/03 06:36:22;;;;;;;5.60;2.80;;;;;;;12.47;57.03;100992.98;106058;1274;24263;-79
2022/09/03 06:38:54;;;;;;;8.70;3.50;;;;;;;12.51;56.97;100992.25;105836;1273;22548;-78
2022/09/03 06:41:24;;;;;;;7.30;2.80;;;;;;;12.58;56.92;100995.91;105930;1275;22639;-80
2022/09/03 06:43:54;;;;;;;4.80;3.00;;;;;;;12.66;56.84;100991.44;106011;1275;22550;-77
2022/09/03 06:46:22;;;;;;;5.00;2.40;;;;;;;12.72;56.63;100994.03;106093;1273;25318;-79
2022/09/03 06:48:50;;;;;;;8.20;2.90;;;;;;;12.77;56.54;100989.92;106025;1274;22532;-82
2022/09/03 06:51:20;;;;;;;7.80;3.20;;;;;;;12.82;56.37;100990.41;106070;1275;22683;-75
2022/09/03 06:53:56;;;;;;;10.40;3.10;;;;;;;12.94;56.16;100993.83;106167;1274;22550;-75
2022/09/03 06:56:26;;;;;;;6.00;2.90;;;;;;;13.04;56.17;100989.16;105924;1273;25321;-83
2022/09/03 06:58:57;;;;;;;6.10;2.80;;;;;;;13.14;56.00;100989.95;105595;1280;22680;-75
2022/09/03 07:01:32;;;;;;;10.40;3.30;;;;;;;13.21;55.86;100986.67;105745;1279;24350;-78
2022/09/03 07:04:04;;;;;;;5.30;2.60;;;;;;;13.28;55.63;100985.55;105958;1279;24375;-74
2022/09/03 07:06:36;;;;;;;13.00;3.00;;;;;;;13.33;55.66;100989.39;107481;1280;23319;-74
2022/09/03 07:09:07;;;;;;;7.00;2.80;;;;;;;13.40;55.62;100990.55;107154;1281;22715;-75
2022/09/03 07:11:35;;;;;;;10.30;3.40;;;;;;;13.48;55.42;100986.92;106894;1279;23994;-76
2022/09/03 07:14:04;;;;;;;7.40;3.00;;;;;;;13.57;55.15;100984.20;106397;1279;25475;-78
2022/09/03 07:16:35;;;;;;;7.20;2.60;;;;;;;13.66;54.97;100982.66;105744;1279;22528;-77
2022/09/03 07:19:04;;;;;;;7.30;3.30;;;;;;;13.76;54.75;100981.65;105960;1273;22576;-76
2022/09/03 07:21:35;;;;;;;8.00;2.70;;;;;;;13.87;54.68;100985.06;105988;1274;22868;-75
2022/09/03 07:24:04;;;;;;;12.80;3.20;;;;;;;13.96;54.23;100983.69;105808;1276;24260;-76
2022/09/03 07:26:39;;;;;;;4.30;2.50;;;;;;;14.06;54.05;100988.52;106266;1273;23154;-74
2022/09/03 07:29:07;;;;;;;9.70;3.10;;;;;;;14.18;53.95;100990.66;105817;1277;22741;-73
2022/09/03 07:31:37;;;;;;;10.80;3.40;;;;;;;14.28;53.67;100992.65;105909;1274;22725;-75
2022/09/03 07:34:07;;;;;;;7.90;2.70;;;;;;;14.36;53.66;100992.86;105950;1277;22597;-76
2022/09/03 07:36:42;;;;;;;7.00;2.50;;;;;;;14.44;53.51;100993.45;105923;1275;22883;-73
2022/09/03 07:39:11;;;;;;;5.50;2.70;;;;;;;14.55;53.11;100997.70;105923;1276;24413;-75
2022/09/03 07:41:42;;;;;;;9.60;3.00;;;;;;;14.68;52.86;100998.91;106072;1275;25255;-76
2022/09/03 07:44:12;;;;;;;8.60;3.10;;;;;;;14.80;52.47;100998.56;105446;1281;24321;-74
2022/09/03 07:46:40;;;;;;;9.30;3.40;;;;;;;14.93;52.23;100993.23;105635;1281;22618;-77
2022/09/03 07:49:07;;;;;;;7.60;2.80;;;;;;;15.06;51.93;100992.10;105621;1281;22708;-76
2022/09/03 07:51:37;;;;;;;6.80;3.00;;;;;;;15.18;51.54;100993.14;105563;1281;22741;-76
2022/09/03 07:54:08;;;;;;;7.80;2.80;;;;;;;15.29;50.88;100989.02;105715;1279;25641;-76
2022/09/03 07:56:37;;;;;;;6.50;2.40;;;;;;;15.41;50.59;100989.31;105716;1281;22822;-74
2022/09/03 07:59:05;;;;;;;3.40;2.00;;;;;;;15.55;50.45;100987.80;105273;1283;22560;-76
2022/09/03 08:01:33;;;;;;;4.00;2.30;;;;;;;15.69;50.08;100992.48;105707;1281;25652;-76
2022/09/03 08:04:01;;;;;;;5.70;2.20;;;;;;;15.80;49.10;100990.83;106138;1274;25372;-77
2022/09/03 08:06:31;;;;;;;5.60;2.30;;;;;;;15.94;48.53;100991.96;106007;1274;22618;-81
2022/09/03 08:09:04;;;;;;;5.50;2.30;;;;;;;16.09;48.55;100993.25;105944;1274;25316;-75
2022/09/03 08:11:35;;;;;;;6.10;2.00;;;;;;;16.25;48.17;100995.39;105812;1277;22920;-76
2022/09/03 08:14:05;;;;;;;4.00;1.70;;;;;;;16.41;47.36;100996.98;105316;1281;26528;-78
2022/09/03 08:16:35;;;;;;;2.50;1.70;;;;;;;16.56;46.75;101000.16;105315;1284;24341;-76
2022/09/03 08:19:04;;;;;;;7.70;1.90;;;;;;;16.72;46.12;100995.35;105209;1281;22566;-77
2022/09/03 08:21:31;;;;;;;2.80;1.80;;;;;;;16.88;46.09;100986.41;105793;1281;25263;-83
2022/09/03 08:24:01;;;;;;;5.60;2.10;;;;;;;17.08;45.96;100984.81;105719;1281;22547;-75
2022/09/03 08:26:31;;;;;;;2.40;2.00;;;;;;;17.27;45.43;100986.65;104909;1287;22806;-75
2022/09/03 08:28:59;;;;;;;4.50;2.20;;;;;;;17.46;45.06;100986.12;104873;1287;22550;-77
2022/09/03 08:31:28;;;;;;;7.40;2.60;;;;;;;17.63;44.46;100987.23;104690;1285;25343;-79
2022/09/03 08:33:57;;;;;;;5.10;1.80;;;;;;;17.80;44.32;100983.52;105307;1281;26089;-76
2022/09/03 08:36:29;;;;;;;3.10;2.30;;;;;;;17.98;43.19;100978.73;105401;1283;24395;-74
2022/09/03 08:39:02;;;;;;;5.60;2.30;;;;;;;18.16;43.06;100979.98;105440;1281;22540;-78
2022/09/03 08:41:38;;;;;;;7.30;2.30;;;;;;;18.34;41.84;100980.68;105674;1281;22649;-78
2022/09/03 08:44:05;;;;;;;;;;;;;;;18.47;41.19;100976.70;105514;1277;25293;-76
2022/09/03 08:47:04;;;;;;;4.00;1.80;;;;;;;18.62;41.02;100976.55;106043;1274;25283;-83
2022/09/03 08:49:40;;;;;;;2.60;1.70;;;;;;;18.83;40.88;100972.81;105917;1275;25018;-80
2022/09/03 08:52:36;;;;;;;2.40;1.70;;;;;;;18.97;39.85;100966.81;106073;1274;25390;-76
2022/09/03 08:55:18;;;;;;;2.00;1.40;;;;;;;19.09;39.11;100959.63;105999;1274;22730;-79
2022/09/03 08:57:49;;;;;;;4.60;1.80;;;;;;;19.27;39.00;100964.73;105268;1281;24242;-73
2022/09/03 09:00:16;;;;;;;4.20;2.00;;;;;;;19.43;39.05;100957.70;105459;1281;24276;-77
2022/09/03 09:02:49;;;;;;;3.40;1.80;;;;;;;19.60;38.40;100957.59;105626;1281;22540;-78
2022/09/03 09:05:23;;;;;;;2.40;1.90;;;;;;;19.73;37.75;100957.11;105593;1281;22707;-77
2022/09/03 09:08:06;;;;;;;3.60;1.70;;;;;;;19.85;37.61;100955.95;105566;1280;22816;-76
2022/09/03 09:10:44;;;;;;;4.60;1.90;;;;;;;19.99;37.29;100952.37;105493;1281;24301;-84
2022/09/03 09:13:42;;;;;;;8.40;2.60;;;;;;;20.15;37.23;100951.41;105542;1281;25496;-77
2022/09/03 09:16:19;;;;;;;3.30;1.80;;;;;;;20.35;36.92;100955.77;105656;1275;22554;-77
2022/09/03 09:19:34;;;;;;;3.90;1.80;;;;;;;20.53;36.46;100949.52;106051;1274;22541;-77
2022/09/03 09:22:22;;;;;;;6.70;1.60;;;;;;;20.72;36.13;100949.77;105410;1274;22528;-75
2022/09/03 09:24:52;;;;;;;2.10;1.50;;;;;;;20.88;35.47;100946.26;106111;1274;24247;-76
2022/09/03 09:27:19;;;;;;;2.10;1.40;;;;;;;20.99;35.18;100947.74;106289;1276;22670;-74
2022/09/03 09:29:49;;;;;;;4.40;1.30;;;;;;;21.13;34.96;100944.29;105955;1277;24273;-80
2022/09/03 09:32:19;;;;;;;2.70;1.40;;;;;;;21.27;34.74;100944.03;105930;1275;25615;-78
2022/09/03 09:34:47;;;;;;;3.10;1.60;;;;;;;21.45;34.46;100941.05;106201;1274;25372;-80
2022/09/03 09:37:19;;;;;;;2.50;1.50;;;;;;;21.54;34.29;100942.44;105999;1275;22543;-78
2022/09/03 09:39:58;;;;;;;5.30;1.30;;;;;;;21.68;34.26;100942.14;106093;1274;22649;-80
2022/09/03 09:42:28;;;;;;;1.40;1.10;;;;;;;21.81;33.92;100941.95;106989;1274;22705;-75
2022/09/03 09:44:55;;;;;;;6.00;1.50;;;;;;;21.89;33.37;100941.92;106876;1274;22550;-76
2022/09/03 09:47:35;;;;;;;4.20;1.60;;;;;;;22.02;33.53;100937.01;106124;1275;22570;-78
2022/09/03 09:50:14;;;;;;;2.80;1.30;;;;;;;22.16;33.39;100940.23;105772;1274;22992;-77
2022/09/03 09:53:07;;;;;;;3.40;1.50;;;;;;;22.28;33.19;100938.95;106110;1273;22776;-80
2022/09/03 09:55:36;;;;;;;3.50;1.60;;;;;;;22.39;32.93;100938.57;105915;1274;22690;-77
2022/09/03 09:58:09;;;;;;;4.50;1.40;;;;;;;22.53;32.85;100932.00;106050;1275;22684;-78
2022/09/03 10:00:41;;;;;;;2.40;1.60;;;;;;;22.76;32.11;100924.04;106084;1274;23244;-83
2022/09/03 10:03:12;;;;;;;6.80;1.40;;;;;;;22.86;31.97;100930.71;105734;1278;22638;-77
2022/09/03 10:05:39;;;;;;;3.60;1.40;;;;;;;23.01;32.12;100932.63;105757;1277;23087;-85
2022/09/03 10:08:19;;;;;;;4.20;1.20;;;;;;;23.14;31.80;100926.88;105670;1277;22625;-80
2022/09/03 10:10:49;;;;;;;1.40;1.30;;;;;;;23.36;31.75;100928.45;105821;1277;24328;-79
2022/09/03 10:13:35;;;;;;;7.20;2.10;;;;;;;23.53;31.16;100932.77;105432;1278;24292;-81
2022/09/03 10:16:12;;;;;;;3.80;1.40;;;;;;;23.67;30.69;100932.48;105171;1284;22597;-80
2022/09/03 10:18:46;;;;;;;7.60;1.40;;;;;;;23.78;30.51;100927.25;105176;1283;22547;-80
2022/09/03 10:21:25;;;;;;;3.80;1.50;;;;;;;23.93;30.37;100928.91;105240;1281;22585;-82
2022/09/03 10:24:15;;;;;;;3.70;1.40;;;;;;;24.10;29.92;100924.70;105366;1283;24256;-79
2022/09/03 10:26:46;;;;;;;3.90;1.50;;;;;;;24.23;30.01;100923.79;104895;1287;22639;-88
2022/09/03 10:29:20;;;;;;;2.40;1.20;;;;;;;24.41;29.47;100922.43;104614;1290;22734;-80
2022/09/03 10:31:55;;;;;;;2.50;1.80;;;;;;;24.50;29.09;100917.55;104907;1290;25445;-89
2022/09/03 10:34:32;;;;;;;3.40;1.60;;;;;;;24.65;28.97;100915.39;105104;1284;22686;-88
2022/09/03 10:37:20;;;;;;;3.90;1.60;;;;;;;24.76;28.94;100915.84;105855;1286;22731;-91
2022/09/03 10:40:05;;;;;;;5.10;1.80;;;;;;;24.84;28.52;100913.76;105141;1284;25255;-81
2022/09/03 10:42:54;;;;;;;3.00;2.20;;;;;;;24.88;28.44;100910.61;105127;1285;25356;-81
2022/09/03 10:45:38;;;;;;;2.70;1.50;;;;;;;24.95;27.68;100904.84;105440;1280;23971;-82
2022/09/03 10:48:44;;;;;;;3.10;1.40;;;;;;;25.05;27.56;100898.82;105883;1274;23270;-91
2022/09/03 10:51:28;;;;;;;3.90;1.70;;;;;;;25.19;27.24;100897.95;106043;1274;22556;-77
2022/09/03 10:54:04;;;;;;;2.30;1.60;;;;;;;25.31;27.07;100889.27;106148;1274;25267;-79
2022/09/03 10:56:50;;;;;;;3.10;1.60;;;;;;;25.50;27.24;100888.79;105940;1274;22619;-79
2022/09/03 10:59:46;;;;;;;4.90;1.80;;;;;;;25.67;27.31;100894.58;106099;1274;22779;-79
2022/09/03 11:02:31;;;;;;;4.20;1.80;;;;;;;25.80;26.77;100890.67;105705;1274;22532;-80
2022/09/03 11:05:15;;;;;;;2.50;1.50;;;;;;;25.97;26.32;100886.31;105951;1274;25421;-80
2022/09/03 11:07:57;;;;;;;2.00;1.60;;;;;;;26.06;26.06;100881.77;106050;1274;22781;-80
2022/09/03 11:10:32;;;;;;;1.40;1.30;;;;;;;26.23;26.08;100885.52;105996;1275;22598;-79
2022/09/03 11:13:13;;;;;;;1.40;1.10;;;;;;;26.29;25.82;100889.30;106061;1274;24240;-78
2022/09/03 11:15:48;;;;;;;2.40;1.20;;;;;;;26.36;25.58;100889.55;106439;1274;22552;-77
2022/09/03 11:18:19;;;;;;;1.40;1.20;;;;;;;26.46;25.45;100888.52;106346;1275;22551;-79
2022/09/03 11:20:48;;;;;;;5.80;1.60;;;;;;;26.75;24.91;100880.54;105894;1274;25264;-79
2022/09/03 11:23:18;;;;;;;4.10;1.30;;;;;;;27.04;24.64;100881.48;105822;1274;22674;-77
2022/09/03 11:25:51;;;;;;;4.30;1.90;;;;;;;27.08;24.46;100876.82;105966;1274;22570;-77
2022/09/03 11:29:03;;;;;;;3.50;1.30;;;;;;;27.12;24.55;100874.95;106055;1275;25667;-82
2022/09/03 11:31:56;;;;;;;1.10;1.00;;;;;;;27.30;24.08;100867.48;105574;1274;24285;-79
2022/09/03 11:34:24;;;;;;;1.60;1.40;;;;;;;27.51;24.01;100867.81;106034;1274;22614;-79
2022/09/03 11:37:36;;;;;;;2.80;1.30;;;;;;;27.84;23.73;100871.75;106080;1274;22546;-78
2022/09/03 11:40:12;;;;;;;1.70;1.40;;;;;;;27.92;22.93;100867.86;105987;1275;24233;-80
2022/09/03 11:42:42;;;;;;;5.10;1.30;;;;;;;27.83;23.06;100870.95;105906;1276;25257;-79
2022/09/03 11:45:31;;;;;;;1.40;1.00;;;;;;;27.83;23.24;100872.77;105995;1274;22589;-80
2022/09/03 11:47:58;;;;;;;1.80;1.20;;;;;;;27.87;22.86;100867.71;106136;1274;25469;-81
2022/09/03 11:50:26;;;;;;;1.20;1.10;;;;;;;27.92;23.24;100865.58;106070;1273;22524;-79
2022/09/03 11:53:07;;;;;;;1.00;0.90;;;;;;;28.00;22.71;100866.08;105982;1277;25246;-79
2022/09/03 11:55:58;;;;;;;2.90;1.00;;;;;;;27.99;22.38;100865.02;105958;1274;22531;-80